sensor_id;sensor_type;location;lat;lon;timestamp;pressure;altitude;pressure_sealevel;temperature;humidity
80934;BME280;70392;51.144;17.050;2023-07-24T00:01:46;99646.44;;;21.43;49.09
80934;BME280;70392;51.144;17.050;2023-07-24T00:04:03;99648.42;;;21.28;49.85
80934;BME280;70392;51.144;17.050;2023-07-24T00:06:20;99648.86;;;21.01;51.42
80934;BME280;70392;51.144;17.050;2023-07-24T00:08:36;99643.09;;;20.85;51.83
80934;BME280;70392;51.144;17.050;2023-07-24T00:10:55;99647.05;;;20.71;51.32
80934;BME280;70392;51.144;17.050;2023-07-24T00:13:13;99644.34;;;20.55;51.84
80934;BME280;70392;51.144;17.050;2023-07-24T00:15:28;99648.09;;;20.49;51.90
80934;BME280;70392;51.144;17.050;2023-07-24T00:17:45;99651.05;;;20.40;52.55
80934;BME280;70392;51.144;17.050;2023-07-24T00:20:01;99642.58;;;20.32;53.56
80934;BME280;70392;51.144;17.050;2023-07-24T00:22:25;99640.45;;;20.29;53.72
80934;BME280;70392;51.144;17.050;2023-07-24T00:24:41;99637.95;;;20.19;54.38
80934;BME280;70392;51.144;17.050;2023-07-24T00:26:57;99647.66;;;20.17;54.14
80934;BME280;70392;51.144;17.050;2023-07-24T00:29:13;99640.64;;;20.12;53.87
80934;BME280;70392;51.144;17.050;2023-07-24T00:31:29;99640.52;;;20.05;54.41
80934;BME280;70392;51.144;17.050;2023-07-24T00:33:45;99635.61;;;20.01;54.50
80934;BME280;70392;51.144;17.050;2023-07-24T00:36:04;99641.35;;;19.94;55.42
80934;BME280;70392;51.144;17.050;2023-07-24T00:38:26;99639.63;;;19.91;55.62
80934;BME280;70392;51.144;17.050;2023-07-24T00:40:44;99638.84;;;19.87;55.39
80934;BME280;70392;51.144;17.050;2023-07-24T00:43:00;99630.73;;;19.85;55.28
80934;BME280;70392;51.144;17.050;2023-07-24T00:45:24;99622.77;;;19.80;55.36
80934;BME280;70392;51.144;17.050;2023-07-24T00:47:44;99627.80;;;19.80;54.88
80934;BME280;70392;51.144;17.050;2023-07-24T00:50:01;99618.14;;;19.72;55.25
80934;BME280;70392;51.144;17.050;2023-07-24T00:52:23;99610.31;;;19.69;55.49
80934;BME280;70392;51.144;17.050;2023-07-24T00:54:39;99613.10;;;19.60;57.07
80934;BME280;70392;51.144;17.050;2023-07-24T00:56:56;99612.57;;;19.40;59.23
80934;BME280;70392;51.144;17.050;2023-07-24T00:59:15;99611.25;;;19.23;59.65
80934;BME280;70392;51.144;17.050;2023-07-24T01:01:34;99613.13;;;19.23;59.24
80934;BME280;70392;51.144;17.050;2023-07-24T01:03:52;99609.14;;;19.16;63.06
80934;BME280;70392;51.144;17.050;2023-07-24T01:06:08;99621.09;;;19.14;64.18
80934;BME280;70392;51.144;17.050;2023-07-24T01:08:24;99624.00;;;19.18;63.57
80934;BME280;70392;51.144;17.050;2023-07-24T01:10:40;99623.22;;;19.28;62.60
80934;BME280;70392;51.144;17.050;2023-07-24T01:13:10;99628.39;;;19.32;62.30
80934;BME280;70392;51.144;17.050;2023-07-24T01:18:09;99631.68;;;19.34;62.33
80934;BME280;70392;51.144;17.050;2023-07-24T01:20:29;99632.52;;;19.37;62.19
80934;BME280;70392;51.144;17.050;2023-07-24T01:28:13;99629.73;;;19.50;61.50
80934;BME280;70392;51.144;17.050;2023-07-24T01:30:29;99631.20;;;19.45;61.82
80934;BME280;70392;51.144;17.050;2023-07-24T01:32:45;99631.05;;;19.41;61.84
80934;BME280;70392;51.144;17.050;2023-07-24T01:35:11;99634.52;;;19.48;61.48
80934;BME280;70392;51.144;17.050;2023-07-24T01:37:28;99631.57;;;19.34;62.17
80934;BME280;70392;51.144;17.050;2023-07-24T01:39:45;99629.58;;;19.39;61.69
80934;BME280;70392;51.144;17.050;2023-07-24T01:42:07;99623.75;;;19.48;60.35
80934;BME280;70392;51.144;17.050;2023-07-24T01:44:24;99622.28;;;19.50;60.81
80934;BME280;70392;51.144;17.050;2023-07-24T01:46:42;99627.75;;;19.51;60.42
80934;BME280;70392;51.144;17.050;2023-07-24T01:48:58;99616.99;;;19.45;61.97
80934;BME280;70392;51.144;17.050;2023-07-24T01:51:14;99618.43;;;19.55;60.76
80934;BME280;70392;51.144;17.050;2023-07-24T01:53:30;99622.69;;;19.59;60.28
80934;BME280;70392;51.144;17.050;2023-07-24T01:55:49;99621.88;;;19.59;58.91
80934;BME280;70392;51.144;17.050;2023-07-24T01:58:05;99620.83;;;19.55;59.47
80934;BME280;70392;51.144;17.050;2023-07-24T02:00:22;99614.18;;;19.53;58.12
80934;BME280;70392;51.144;17.050;2023-07-24T02:02:38;99614.59;;;19.51;58.15
80934;BME280;70392;51.144;17.050;2023-07-24T02:04:55;99606.62;;;19.48;58.22
80934;BME280;70392;51.144;17.050;2023-07-24T02:07:11;99618.42;;;19.50;56.35
80934;BME280;70392;51.144;17.050;2023-07-24T02:09:32;99608.20;;;19.55;55.44
80934;BME280;70392;51.144;17.050;2023-07-24T02:11:48;99610.83;;;19.66;53.72
80934;BME280;70392;51.144;17.050;2023-07-24T02:14:04;99602.45;;;19.74;54.51
80934;BME280;70392;51.144;17.050;2023-07-24T02:16:20;99596.71;;;19.83;53.78
80934;BME280;70392;51.144;17.050;2023-07-24T02:18:41;99587.92;;;19.88;53.57
80934;BME280;70392;51.144;17.050;2023-07-24T02:21:04;99593.98;;;19.97;53.83
80934;BME280;70392;51.144;17.050;2023-07-24T02:23:21;99592.52;;;20.01;53.41
80934;BME280;70392;51.144;17.050;2023-07-24T02:25:37;99592.26;;;20.01;53.92
80934;BME280;70392;51.144;17.050;2023-07-24T02:27:53;99586.02;;;20.02;53.52
80934;BME280;70392;51.144;17.050;2023-07-24T02:30:11;99584.29;;;20.02;53.90
80934;BME280;70392;51.144;17.050;2023-07-24T02:32:36;99580.92;;;20.09;53.49
80934;BME280;70392;51.144;17.050;2023-07-24T02:34:53;99581.82;;;20.12;54.08
80934;BME280;70392;51.144;17.050;2023-07-24T02:37:09;99587.17;;;20.13;53.26
80934;BME280;70392;51.144;17.050;2023-07-24T02:39:42;99573.02;;;20.17;52.80
80934;BME280;70392;51.144;17.050;2023-07-24T02:41:58;99569.18;;;20.20;52.92
80934;BME280;70392;51.144;17.050;2023-07-24T02:44:15;99574.49;;;20.21;53.09
80934;BME280;70392;51.144;17.050;2023-07-24T02:46:31;99572.90;;;20.18;53.35
80934;BME280;70392;51.144;17.050;2023-07-24T02:48:47;99576.98;;;20.26;52.44
80934;BME280;70392;51.144;17.050;2023-07-24T02:51:04;99585.38;;;20.24;52.56
80934;BME280;70392;51.144;17.050;2023-07-24T02:53:20;99576.60;;;20.25;52.74
80934;BME280;70392;51.144;17.050;2023-07-24T02:55:43;99582.30;;;20.28;52.43
80934;BME280;70392;51.144;17.050;2023-07-24T02:58:00;99578.23;;;20.20;52.70
80934;BME280;70392;51.144;17.050;2023-07-24T03:00:18;99572.90;;;20.18;52.68
80934;BME280;70392;51.144;17.050;2023-07-24T03:02:35;99567.58;;;20.18;52.62
80934;BME280;70392;51.144;17.050;2023-07-24T03:04:51;99573.20;;;20.16;53.14
80934;BME280;70392;51.144;17.050;2023-07-24T03:07:07;99571.74;;;20.11;52.88
80934;BME280;70392;51.144;17.050;2023-07-24T03:09:23;99571.63;;;20.04;53.06
80934;BME280;70392;51.144;17.050;2023-07-24T03:11:59;99576.98;;;20.03;53.20
80934;BME280;70392;51.144;17.050;2023-07-24T03:14:16;99576.73;;;19.97;53.93
80934;BME280;70392;51.144;17.050;2023-07-24T03:16:32;99567.16;;;19.92;53.66
80934;BME280;70392;51.144;17.050;2023-07-24T03:18:50;99565.85;;;19.87;53.97
80934;BME280;70392;51.144;17.050;2023-07-24T03:21:06;99570.79;;;19.82;54.33
80934;BME280;70392;51.144;17.050;2023-07-24T03:23:23;99571.87;;;19.83;54.39
80934;BME280;70392;51.144;17.050;2023-07-24T03:25:43;99575.96;;;19.81;54.45
80934;BME280;70392;51.144;17.050;2023-07-24T03:27:59;99573.31;;;19.81;54.66
80934;BME280;70392;51.144;17.050;2023-07-24T03:30:16;99572.89;;;19.84;55.03
80934;BME280;70392;51.144;17.050;2023-07-24T03:32:32;99567.70;;;19.90;54.64
80934;BME280;70392;51.144;17.050;2023-07-24T03:34:49;99578.71;;;19.96;54.76
80934;BME280;70392;51.144;17.050;2023-07-24T03:37:05;99575.36;;;20.05;54.03
80934;BME280;70392;51.144;17.050;2023-07-24T03:39:21;99579.02;;;20.16;53.63
80934;BME280;70392;51.144;17.050;2023-07-24T03:41:41;99574.98;;;20.26;53.39
80934;BME280;70392;51.144;17.050;2023-07-24T03:43:58;99570.41;;;20.39;52.85
80934;BME280;70392;51.144;17.050;2023-07-24T03:46:17;99572.86;;;20.53;52.40
80934;BME280;70392;51.144;17.050;2023-07-24T03:48:34;99572.54;;;20.62;52.16
80934;BME280;70392;51.144;17.050;2023-07-24T03:50:59;99571.81;;;20.69;52.02
80934;BME280;70392;51.144;17.050;2023-07-24T03:53:26;99568.78;;;20.84;51.41
80934;BME280;70392;51.144;17.050;2023-07-24T03:55:42;99563.28;;;20.94;51.11
80934;BME280;70392;51.144;17.050;2023-07-24T03:58:01;99560.38;;;21.04;51.03
80934;BME280;70392;51.144;17.050;2023-07-24T04:00:18;99556.74;;;21.13;50.73
80934;BME280;70392;51.144;17.050;2023-07-24T04:02:35;99553.89;;;21.18;50.56
80934;BME280;70392;51.144;17.050;2023-07-24T04:04:52;99551.84;;;21.22;50.87
80934;BME280;70392;51.144;17.050;2023-07-24T04:07:08;99550.60;;;21.27;51.08
80934;BME280;70392;51.144;17.050;2023-07-24T04:09:28;99547.66;;;21.31;51.33
80934;BME280;70392;51.144;17.050;2023-07-24T04:11:48;99555.80;;;21.42;50.96
80934;BME280;70392;51.144;17.050;2023-07-24T04:14:04;99558.12;;;21.50;51.36
80934;BME280;70392;51.144;17.050;2023-07-24T04:16:20;99566.46;;;21.56;52.70
80934;BME280;70392;51.144;17.050;2023-07-24T04:18:53;99562.76;;;21.68;51.71
80934;BME280;70392;51.144;17.050;2023-07-24T04:21:09;99567.05;;;21.77;52.47
80934;BME280;70392;51.144;17.050;2023-07-24T04:23:26;99580.71;;;21.72;53.36
80934;BME280;70392;51.144;17.050;2023-07-24T04:25:44;99583.09;;;21.83;52.24
80934;BME280;70392;51.144;17.050;2023-07-24T04:28:03;99579.23;;;21.99;50.61
80934;BME280;70392;51.144;17.050;2023-07-24T04:30:22;99587.84;;;22.02;49.48
80934;BME280;70392;51.144;17.050;2023-07-24T04:32:42;99578.45;;;22.07;49.31
80934;BME280;70392;51.144;17.050;2023-07-24T04:34:58;99581.93;;;22.15;48.91
80934;BME280;70392;51.144;17.050;2023-07-24T04:37:17;99574.40;;;22.21;49.05
80934;BME280;70392;51.144;17.050;2023-07-24T04:39:38;99568.84;;;22.36;48.79
80934;BME280;70392;51.144;17.050;2023-07-24T04:41:54;99567.23;;;22.47;48.22
80934;BME280;70392;51.144;17.050;2023-07-24T04:44:33;99572.90;;;22.62;48.76
80934;BME280;70392;51.144;17.050;2023-07-24T04:46:50;99573.90;;;22.65;50.11
80934;BME280;70392;51.144;17.050;2023-07-24T04:49:06;99575.59;;;22.69;50.78
80934;BME280;70392;51.144;17.050;2023-07-24T04:51:24;99574.35;;;22.71;51.37
80934;BME280;70392;51.144;17.050;2023-07-24T04:53:40;99578.35;;;22.74;52.00
80934;BME280;70392;51.144;17.050;2023-07-24T04:55:56;99581.88;;;22.80;52.52
80934;BME280;70392;51.144;17.050;2023-07-24T04:58:12;99577.45;;;22.89;52.77
80934;BME280;70392;51.144;17.050;2023-07-24T05:00:47;99576.91;;;23.05;52.55
80934;BME280;70392;51.144;17.050;2023-07-24T05:03:03;99574.59;;;23.02;53.89
80934;BME280;70392;51.144;17.050;2023-07-24T05:05:19;99571.13;;;23.08;53.60
80934;BME280;70392;51.144;17.050;2023-07-24T05:07:36;99571.34;;;23.10;54.43
80934;BME280;70392;51.144;17.050;2023-07-24T05:09:52;99564.34;;;23.13;54.70
80934;BME280;70392;51.144;17.050;2023-07-24T05:12:26;99566.98;;;23.25;53.60
80934;BME280;70392;51.144;17.050;2023-07-24T05:14:44;99570.07;;;23.32;54.56
80934;BME280;70392;51.144;17.050;2023-07-24T05:17:00;99560.76;;;23.32;54.87
80934;BME280;70392;51.144;17.050;2023-07-24T05:19:16;99555.83;;;23.33;54.59
80934;BME280;70392;51.144;17.050;2023-07-24T05:21:32;99554.11;;;23.35;53.88
80934;BME280;70392;51.144;17.050;2023-07-24T05:23:49;99549.14;;;23.44;51.00
80934;BME280;70392;51.144;17.050;2023-07-24T05:26:05;99557.26;;;23.50;51.78
80934;BME280;70392;51.144;17.050;2023-07-24T05:28:26;99539.47;;;23.60;50.35
80934;BME280;70392;51.144;17.050;2023-07-24T05:30:43;99542.61;;;23.70;50.75
80934;BME280;70392;51.144;17.050;2023-07-24T05:32:59;99539.68;;;23.78;50.14
80934;BME280;70392;51.144;17.050;2023-07-24T05:35:16;99533.89;;;23.64;46.02
80934;BME280;70392;51.144;17.050;2023-07-24T05:37:34;99534.39;;;23.54;46.84
80934;BME280;70392;51.144;17.050;2023-07-24T05:39:51;99529.06;;;23.53;46.95
80934;BME280;70392;51.144;17.050;2023-07-24T05:42:07;99524.60;;;23.41;45.14
80934;BME280;70392;51.144;17.050;2023-07-24T05:44:23;99523.95;;;23.45;45.56
80934;BME280;70392;51.144;17.050;2023-07-24T05:46:39;99522.17;;;23.61;45.60
80934;BME280;70392;51.144;17.050;2023-07-24T05:48:56;99512.89;;;23.80;44.91
80934;BME280;70392;51.144;17.050;2023-07-24T05:51:13;99508.02;;;23.94;44.08
80934;BME280;70392;51.144;17.050;2023-07-24T05:53:29;99499.40;;;24.10;44.39
80934;BME280;70392;51.144;17.050;2023-07-24T05:55:45;99497.77;;;24.16;44.34
80934;BME280;70392;51.144;17.050;2023-07-24T05:58:02;99504.39;;;24.37;44.03
80934;BME280;70392;51.144;17.050;2023-07-24T06:00:20;99497.73;;;24.53;43.11
80934;BME280;70392;51.144;17.050;2023-07-24T06:02:38;99497.20;;;24.69;42.97
80934;BME280;70392;51.144;17.050;2023-07-24T06:04:55;99490.98;;;24.76;42.10
80934;BME280;70392;51.144;17.050;2023-07-24T06:07:11;99486.45;;;24.67;41.74
80934;BME280;70392;51.144;17.050;2023-07-24T06:09:27;99488.13;;;24.57;42.27
80934;BME280;70392;51.144;17.050;2023-07-24T06:11:43;99496.59;;;24.66;42.61
80934;BME280;70392;51.144;17.050;2023-07-24T06:14:00;99489.70;;;24.75;43.50
80934;BME280;70392;51.144;17.050;2023-07-24T06:16:34;99490.00;;;24.90;42.43
80934;BME280;70392;51.144;17.050;2023-07-24T06:18:50;99493.77;;;24.81;41.60
80934;BME280;70392;51.144;17.050;2023-07-24T06:21:07;99486.43;;;24.74;41.81
80934;BME280;70392;51.144;17.050;2023-07-24T06:23:25;99482.02;;;24.69;42.35
80934;BME280;70392;51.144;17.050;2023-07-24T06:25:44;99477.47;;;24.76;42.77
80934;BME280;70392;51.144;17.050;2023-07-24T06:28:00;99481.70;;;24.85;42.76
80934;BME280;70392;51.144;17.050;2023-07-24T06:30:17;99480.71;;;24.99;42.94
80934;BME280;70392;51.144;17.050;2023-07-24T06:32:33;99488.53;;;24.92;44.88
80934;BME280;70392;51.144;17.050;2023-07-24T06:34:59;99489.16;;;25.17;44.52
80934;BME280;70392;51.144;17.050;2023-07-24T06:37:15;99497.91;;;25.29;45.65
80934;BME280;70392;51.144;17.050;2023-07-24T06:39:33;99497.34;;;25.52;44.60
80934;BME280;70392;51.144;17.050;2023-07-24T06:41:52;99497.14;;;25.70;44.09
80934;BME280;70392;51.144;17.050;2023-07-24T06:44:09;99487.08;;;25.78;44.18
80934;BME280;70392;51.144;17.050;2023-07-24T06:46:30;99484.45;;;25.96;42.77
80934;BME280;70392;51.144;17.050;2023-07-24T06:48:46;99493.96;;;26.05;42.79
80934;BME280;70392;51.144;17.050;2023-07-24T06:51:07;99483.08;;;26.14;43.05
80934;BME280;70392;51.144;17.050;2023-07-24T06:53:23;99481.43;;;26.19;40.30
80934;BME280;70392;51.144;17.050;2023-07-24T06:55:41;99481.99;;;26.18;40.92
80934;BME280;70392;51.144;17.050;2023-07-24T06:58:00;99474.91;;;26.02;40.19
80934;BME280;70392;51.144;17.050;2023-07-24T07:00:17;99478.75;;;26.04;40.03
80934;BME280;70392;51.144;17.050;2023-07-24T07:02:33;99478.84;;;25.84;38.88
80934;BME280;70392;51.144;17.050;2023-07-24T07:04:50;99475.23;;;25.74;39.05
80934;BME280;70392;51.144;17.050;2023-07-24T07:07:06;99472.26;;;25.58;39.04
80934;BME280;70392;51.144;17.050;2023-07-24T07:09:25;99475.98;;;25.35;39.41
80934;BME280;70392;51.144;17.050;2023-07-24T07:11:43;99467.07;;;25.30;39.35
80934;BME280;70392;51.144;17.050;2023-07-24T07:14:02;99466.75;;;25.41;39.34
80934;BME280;70392;51.144;17.050;2023-07-24T07:16:19;99459.89;;;25.54;40.17
80934;BME280;70392;51.144;17.050;2023-07-24T07:18:35;99456.16;;;25.70;39.67
80934;BME280;70392;51.144;17.050;2023-07-24T07:20:53;99462.11;;;25.85;39.54
80934;BME280;70392;51.144;17.050;2023-07-24T07:23:10;99452.11;;;25.92;39.03
80934;BME280;70392;51.144;17.050;2023-07-24T07:25:26;99453.36;;;25.85;39.16
80934;BME280;70392;51.144;17.050;2023-07-24T07:27:45;99456.21;;;25.84;38.84
80934;BME280;70392;51.144;17.050;2023-07-24T07:30:04;99452.57;;;25.84;39.25
80934;BME280;70392;51.144;17.050;2023-07-24T07:32:27;99452.55;;;25.79;40.02
80934;BME280;70392;51.144;17.050;2023-07-24T07:34:43;99455.37;;;25.71;39.86
80934;BME280;70392;51.144;17.050;2023-07-24T07:36:59;99455.79;;;25.78;39.20
80934;BME280;70392;51.144;17.050;2023-07-24T07:39:16;99454.31;;;25.85;39.39
80934;BME280;70392;51.144;17.050;2023-07-24T07:41:32;99454.00;;;25.77;39.68
80934;BME280;70392;51.144;17.050;2023-07-24T07:43:48;99448.76;;;25.69;39.77
80934;BME280;70392;51.144;17.050;2023-07-24T07:46:05;99448.41;;;25.80;39.48
80934;BME280;70392;51.144;17.050;2023-07-24T07:48:22;99450.88;;;25.96;39.84
80934;BME280;70392;51.144;17.050;2023-07-24T07:50:39;99437.20;;;26.03;38.93
80934;BME280;70392;51.144;17.050;2023-07-24T07:53:29;99432.10;;;26.20;38.24
80934;BME280;70392;51.144;17.050;2023-07-24T07:55:57;99430.52;;;26.55;37.64
80934;BME280;70392;51.144;17.050;2023-07-24T07:58:15;99434.74;;;26.53;36.98
80934;BME280;70392;51.144;17.050;2023-07-24T08:00:41;99439.72;;;26.67;36.80
80934;BME280;70392;51.144;17.050;2023-07-24T08:02:57;99434.60;;;26.76;36.87
80934;BME280;70392;51.144;17.050;2023-07-24T08:05:13;99428.05;;;26.94;35.52
80934;BME280;70392;51.144;17.050;2023-07-24T08:07:35;99432.99;;;26.99;35.95
80934;BME280;70392;51.144;17.050;2023-07-24T08:09:51;99440.08;;;27.07;36.19
80934;BME280;70392;51.144;17.050;2023-07-24T08:12:08;99448.65;;;27.01;34.75
80934;BME280;70392;51.144;17.050;2023-07-24T08:14:24;99446.43;;;26.80;34.42
80934;BME280;70392;51.144;17.050;2023-07-24T08:16:40;99446.66;;;26.85;34.55
80934;BME280;70392;51.144;17.050;2023-07-24T08:18:58;99446.77;;;26.93;35.11
80934;BME280;70392;51.144;17.050;2023-07-24T08:21:14;99439.88;;;27.02;34.75
80934;BME280;70392;51.144;17.050;2023-07-24T08:23:32;99435.06;;;27.17;34.79
80934;BME280;70392;51.144;17.050;2023-07-24T08:25:52;99429.13;;;27.19;34.25
80934;BME280;70392;51.144;17.050;2023-07-24T08:28:09;99434.74;;;27.26;34.80
80934;BME280;70392;51.144;17.050;2023-07-24T08:30:26;99430.59;;;27.24;35.00
80934;BME280;70392;51.144;17.050;2023-07-24T08:32:41;99437.51;;;27.25;35.50
80934;BME280;70392;51.144;17.050;2023-07-24T08:35:00;99440.47;;;27.11;35.31
80934;BME280;70392;51.144;17.050;2023-07-24T08:37:17;99442.15;;;27.00;35.75
80934;BME280;70392;51.144;17.050;2023-07-24T08:39:33;99440.38;;;27.04;35.74
80934;BME280;70392;51.144;17.050;2023-07-24T08:41:52;99428.81;;;26.92;35.78
80934;BME280;70392;51.144;17.050;2023-07-24T08:44:08;99425.58;;;27.04;35.67
80934;BME280;70392;51.144;17.050;2023-07-24T08:46:25;99437.51;;;27.20;35.61
80934;BME280;70392;51.144;17.050;2023-07-24T08:48:42;99449.76;;;27.28;35.63
80934;BME280;70392;51.144;17.050;2023-07-24T08:51:01;99429.81;;;27.32;34.97
80934;BME280;70392;51.144;17.050;2023-07-24T08:53:21;99432.10;;;27.56;34.67
80934;BME280;70392;51.144;17.050;2023-07-24T08:55:39;99438.06;;;27.69;34.63
80934;BME280;70392;51.144;17.050;2023-07-24T08:57:55;99432.07;;;27.94;33.84
80934;BME280;70392;51.144;17.050;2023-07-24T09:00:12;99421.27;;;28.08;33.74
80934;BME280;70392;51.144;17.050;2023-07-24T09:02:31;99419.44;;;28.23;33.65
80934;BME280;70392;51.144;17.050;2023-07-24T09:04:52;99422.92;;;28.22;33.20
80934;BME280;70392;51.144;17.050;2023-07-24T09:07:08;99422.62;;;28.21;33.09
80934;BME280;70392;51.144;17.050;2023-07-24T09:09:34;99415.96;;;28.47;33.30
80934;BME280;70392;51.144;17.050;2023-07-24T09:11:52;99413.38;;;28.43;33.17
80934;BME280;70392;51.144;17.050;2023-07-24T09:14:25;99412.18;;;28.51;33.76
80934;BME280;70392;51.144;17.050;2023-07-24T09:16:42;99402.14;;;28.45;33.29
80934;BME280;70392;51.144;17.050;2023-07-24T09:18:58;99403.64;;;28.87;33.64
80934;BME280;70392;51.144;17.050;2023-07-24T09:21:14;99411.48;;;29.05;32.14
80934;BME280;70392;51.144;17.050;2023-07-24T09:23:31;99391.70;;;28.99;32.62
80934;BME280;70392;51.144;17.050;2023-07-24T09:25:47;99401.03;;;29.18;32.55
80934;BME280;70392;51.144;17.050;2023-07-24T09:28:13;99393.66;;;29.06;31.95
80934;BME280;70392;51.144;17.050;2023-07-24T09:30:30;99391.98;;;29.43;32.53
80934;BME280;70392;51.144;17.050;2023-07-24T09:32:53;99396.65;;;29.76;31.96
80934;BME280;70392;51.144;17.050;2023-07-24T09:35:15;99377.22;;;29.83;31.49
80934;BME280;70392;51.144;17.050;2023-07-24T09:37:34;99387.04;;;29.93;31.62
80934;BME280;70392;51.144;17.050;2023-07-24T09:39:50;99384.05;;;30.05;31.59
80934;BME280;70392;51.144;17.050;2023-07-24T09:42:06;99382.38;;;29.76;30.88
80934;BME280;70392;51.144;17.050;2023-07-24T09:44:39;99398.81;;;29.60;31.20
80934;BME280;70392;51.144;17.050;2023-07-24T09:46:56;99397.54;;;29.46;31.23
80934;BME280;70392;51.144;17.050;2023-07-24T09:49:12;99394.66;;;29.36;31.70
80934;BME280;70392;51.144;17.050;2023-07-24T09:51:32;99389.37;;;29.35;31.42
80934;BME280;70392;51.144;17.050;2023-07-24T09:53:56;99382.84;;;29.47;31.00
80934;BME280;70392;51.144;17.050;2023-07-24T09:56:17;99366.05;;;29.84;31.55
80934;BME280;70392;51.144;17.050;2023-07-24T09:58:35;99374.31;;;30.18;30.96
80934;BME280;70392;51.144;17.050;2023-07-24T10:00:53;99371.89;;;29.96;29.84
80934;BME280;70392;51.144;17.050;2023-07-24T10:03:10;99376.15;;;29.91;30.69
80934;BME280;70392;51.144;17.050;2023-07-24T10:05:28;99383.52;;;29.78;30.35
80934;BME280;70392;51.144;17.050;2023-07-24T10:07:46;99392.53;;;29.56;30.87
80934;BME280;70392;51.144;17.050;2023-07-24T10:10:04;99390.44;;;29.30;31.54
80934;BME280;70392;51.144;17.050;2023-07-24T10:12:23;99388.76;;;29.27;31.70
80934;BME280;70392;51.144;17.050;2023-07-24T10:14:41;99383.47;;;29.55;31.86
80934;BME280;70392;51.144;17.050;2023-07-24T10:17:01;99382.00;;;29.50;31.16
80934;BME280;70392;51.144;17.050;2023-07-24T10:19:17;99367.83;;;29.68;31.54
80934;BME280;70392;51.144;17.050;2023-07-24T10:21:45;99363.32;;;30.05;31.02
80934;BME280;70392;51.144;17.050;2023-07-24T10:24:02;99354.97;;;29.85;30.71
80934;BME280;70392;51.144;17.050;2023-07-24T10:26:25;99355.88;;;29.94;31.41
80934;BME280;70392;51.144;17.050;2023-07-24T10:28:50;99367.46;;;30.16;30.46
80934;BME280;70392;51.144;17.050;2023-07-24T10:33:31;99359.66;;;29.80;30.73
80934;BME280;70392;51.144;17.050;2023-07-24T10:36:06;99360.69;;;29.78;31.70
80934;BME280;70392;51.144;17.050;2023-07-24T10:38:35;99364.77;;;30.06;30.68
80934;BME280;70392;51.144;17.050;2023-07-24T10:41:02;99355.97;;;29.83;30.83
80934;BME280;70392;51.144;17.050;2023-07-24T10:43:20;99359.55;;;29.73;31.33
80934;BME280;70392;51.144;17.050;2023-07-24T10:48:05;99350.16;;;29.65;31.57
80934;BME280;70392;51.144;17.050;2023-07-24T10:50:22;99350.30;;;29.41;31.71
80934;BME280;70392;51.144;17.050;2023-07-24T10:52:47;99348.13;;;29.48;32.53
80934;BME280;70392;51.144;17.050;2023-07-24T10:55:04;99339.82;;;29.44;31.98
80934;BME280;70392;51.144;17.050;2023-07-24T10:57:26;99342.79;;;29.27;32.55
80934;BME280;70392;51.144;17.050;2023-07-24T10:59:47;99336.30;;;29.28;33.28
80934;BME280;70392;51.144;17.050;2023-07-24T11:02:16;99316.59;;;29.41;32.69
80934;BME280;70392;51.144;17.050;2023-07-24T11:04:33;99316.32;;;29.72;32.50
80934;BME280;70392;51.144;17.050;2023-07-24T11:06:53;99306.47;;;30.10;31.91
80934;BME280;70392;51.144;17.050;2023-07-24T11:09:38;99308.43;;;30.40;31.04
80934;BME280;70392;51.144;17.050;2023-07-24T11:11:56;99306.68;;;30.95;31.36
80934;BME280;70392;51.144;17.050;2023-07-24T11:14:13;99300.05;;;31.24;30.46
80934;BME280;70392;51.144;17.050;2023-07-24T11:16:32;99304.10;;;31.83;28.85
80934;BME280;70392;51.144;17.050;2023-07-24T11:18:52;99300.14;;;32.18;28.56
80934;BME280;70392;51.144;17.050;2023-07-24T11:21:31;99297.50;;;32.77;28.32
80934;BME280;70392;51.144;17.050;2023-07-24T11:23:52;99304.52;;;33.23;27.60
80934;BME280;70392;51.144;17.050;2023-07-24T11:26:10;99303.50;;;33.25;26.96
80934;BME280;70392;51.144;17.050;2023-07-24T11:28:39;99296.77;;;33.46;27.50
80934;BME280;70392;51.144;17.050;2023-07-24T11:31:04;99293.69;;;33.74;26.52
80934;BME280;70392;51.144;17.050;2023-07-24T11:33:21;99298.13;;;33.37;26.20
80934;BME280;70392;51.144;17.050;2023-07-24T11:35:42;99287.27;;;33.36;26.65
80934;BME280;70392;51.144;17.050;2023-07-24T11:37:58;99296.15;;;33.27;26.86
80934;BME280;70392;51.144;17.050;2023-07-24T11:40:16;99295.75;;;33.24;26.83
80934;BME280;70392;51.144;17.050;2023-07-24T11:42:44;99292.52;;;32.93;27.06
80934;BME280;70392;51.144;17.050;2023-07-24T11:45:02;99293.23;;;32.90;27.96
80934;BME280;70392;51.144;17.050;2023-07-24T11:47:19;99288.64;;;32.60;28.13
80934;BME280;70392;51.144;17.050;2023-07-24T11:49:37;99286.83;;;32.17;28.84
80934;BME280;70392;51.144;17.050;2023-07-24T11:52:02;99283.18;;;32.12;29.52
80934;BME280;70392;51.144;17.050;2023-07-24T11:54:19;99292.37;;;32.37;29.50
80934;BME280;70392;51.144;17.050;2023-07-24T11:56:39;99277.00;;;32.45;28.61
80934;BME280;70392;51.144;17.050;2023-07-24T12:01:24;99269.23;;;33.01;28.62
80934;BME280;70392;51.144;17.050;2023-07-24T12:03:40;99268.80;;;33.53;28.61
80934;BME280;70392;51.144;17.050;2023-07-24T12:05:57;99265.02;;;34.43;27.17
80934;BME280;70392;51.144;17.050;2023-07-24T12:08:39;99262.91;;;34.95;26.63
80934;BME280;70392;51.144;17.050;2023-07-24T12:10:55;99261.56;;;34.66;26.71
80934;BME280;70392;51.144;17.050;2023-07-24T12:13:13;99251.56;;;34.45;26.19
80934;BME280;70392;51.144;17.050;2023-07-24T12:15:29;99245.63;;;34.62;25.54
80934;BME280;70392;51.144;17.050;2023-07-24T12:17:53;99244.65;;;34.55;26.01
80934;BME280;70392;51.144;17.050;2023-07-24T12:20:12;99236.85;;;34.73;25.05
80934;BME280;70392;51.144;17.050;2023-07-24T12:22:30;99232.60;;;34.67;24.94